TimePST,TemperatureF,Dew PointF,Humidity,Sea Level PressureIn,VisibilityMPH,Wind Direction,Wind SpeedMPH,Gust SpeedMPH,PrecipitationIn,Events,Conditions,WindDirDegrees,DateUTC
1:52 AM,63.0,46.0,54,30.06,10.0,North,4.6,-,N/A,,Mostly Cloudy,360,2013-02-03 09:52:00
2:52 AM,62.1,46.9,58,30.06,10.0,Calm,Calm,-,N/A,,Overcast,0,2013-02-03 10:52:00
3:52 AM,64.0,46.0,52,30.06,10.0,NNE,6.9,-,0.00,Rain,Light Rain,20,2013-02-03 11:52:00
4:52 AM,63.0,48.0,58,30.06,10.0,NNW,3.5,-,0.00,,Overcast,340,2013-02-03 12:52:00
5:52 AM,66.9,45.0,45,30.06,10.0,NW,13.8,20.7,N/A,,Overcast,320,2013-02-03 13:52:00
6:52 AM,64.9,46.0,50,30.06,10.0,NNW,5.8,-,N/A,,Overcast,330,2013-02-03 14:52:00
7:52 AM,64.9,46.9,52,30.07,10.0,NE,6.9,-,N/A,,Overcast,40,2013-02-03 15:52:00
8:52 AM,69.1,48.0,47,30.08,10.0,North,4.6,-,N/A,,Mostly Cloudy,350,2013-02-03 16:52:00
9:52 AM,73.9,43.0,33,30.07,10.0,NNW,9.2,-,N/A,,Overcast,330,2013-02-03 17:52:00
10:52 AM,73.0,41.0,31,30.06,10.0,WNW,3.5,-,N/A,,Mostly Cloudy,300,2013-02-03 18:52:00
11:52 AM,73.9,41.0,30,30.02,10.0,WNW,6.9,-,N/A,,Scattered Clouds,290,2013-02-03 19:52:00
12:52 PM,75.9,41.0,29,29.98,10.0,Variable,6.9,-,N/A,,Clear,0,2013-02-03 20:52:00
1:52 PM,78.1,41.0,27,29.96,10.0,NNW,10.4,18.4,N/A,,Partly Cloudy,330,2013-02-03 21:52:00
2:52 PM,77.0,41.0,28,29.95,10.0,WNW,5.8,-,N/A,,Overcast,300,2013-02-03 22:52:00
3:52 PM,77.0,42.1,29,29.95,10.0,West,5.8,-,N/A,,Clear,260,2013-02-03 23:52:00
4:52 PM,73.9,44.1,34,29.95,10.0,Calm,Calm,-,N/A,,Clear,0,2013-02-04 00:52:00
5:52 PM,70.0,43.0,38,29.96,10.0,NE,4.6,-,N/A,,Clear,40,2013-02-04 01:52:00
6:52 PM,64.0,45.0,50,29.97,10.0,Calm,Calm,-,N/A,,Clear,0,2013-02-04 02:52:00
7:52 PM,59.0,44.1,58,29.99,10.0,Calm,Calm,-,N/A,,Clear,0,2013-02-04 03:52:00
8:52 PM,57.9,45.0,62,30.00,10.0,Calm,Calm,-,N/A,,Clear,0,2013-02-04 04:52:00
9:52 PM,57.0,43.0,59,30.00,10.0,Calm,Calm,-,N/A,,Clear,0,2013-02-04 05:52:00
10:52 PM,59.0,44.1,58,30.00,10.0,NNE,4.6,-,N/A,,Clear,20,2013-02-04 06:52:00
11:52 PM,55.0,43.0,64,30.01,10.0,North,3.5,-,N/A,,Clear,350,2013-02-04 07:52:00